Time;durP1;ratioP1;P1;durP2;ratioP2;P2;SDS_P1;SDS_P2;PMS_P1;PMS_P2;Temp;Humidity;BMP_temperature;BMP_pressure;BME280_temperature;BME280_humidity;BME280_pressure;Samples;Min_cycle;Max_cycle;Signal;HPM_P1;HPM_P2
2023/11/28 00:01:00;;;;;;;0.30;0.20;;;6.70;99.90;;;;;;5109106;28;20578;-84
2023/11/28 00:03:25;;;;;;;0.30;0.20;;;6.80;99.90;;;;;;5108758;28;20188;-82
2023/11/28 00:05:51;;;;;;;0.30;0.20;;;6.80;99.90;;;;;;5109182;28;20172;-76
2023/11/28 00:08:20;;;;;;;0.30;0.20;;;6.90;99.90;;;;;;5106821;28;20202;-76
2023/11/28 00:10:46;;;;;;;0.30;0.20;;;6.90;99.90;;;;;;5108822;28;20307;-82
2023/11/28 00:13:12;;;;;;;0.30;0.20;;;6.90;99.90;;;;;;5107143;28;20199;-77
2023/11/28 00:15:37;;;;;;;0.30;0.20;;;6.90;99.90;;;;;;5108785;28;20179;-82
2023/11/28 00:18:04;;;;;;;0.30;0.20;;;6.90;99.90;;;;;;5107657;28;20900;-76
2023/11/28 00:20:30;;;;;;;0.30;0.20;;;7.00;99.90;;;;;;5108964;28;20183;-76
2023/11/28 00:22:56;;;;;;;0.30;0.20;;;7.00;99.90;;;;;;5106626;28;20426;-76
2023/11/28 00:25:22;;;;;;;0.30;0.20;;;7.00;99.90;;;;;;5107259;28;20233;-83
2023/11/28 00:27:48;;;;;;;0.30;0.20;;;7.00;99.90;;;;;;5107821;28;20404;-76
2023/11/28 00:30:14;;;;;;;0.30;0.20;;;7.00;99.90;;;;;;5108193;28;20679;-83
2023/11/28 00:32:40;;;;;;;0.30;0.20;;;7.00;99.90;;;;;;5106171;28;20416;-76
2023/11/28 00:35:08;;;;;;;0.30;0.20;;;7.10;99.90;;;;;;5106981;28;20191;-76
2023/11/28 00:37:33;;;;;;;0.50;0.50;;;7.10;99.90;;;;;;5107947;28;20302;-76
2023/11/28 00:39:59;;;;;;;0.30;0.20;;;7.10;99.90;;;;;;5108252;28;20284;-77
2023/11/28 00:42:25;;;;;;;0.30;0.20;;;7.10;99.90;;;;;;5105505;28;20412;-82
2023/11/28 00:44:52;;;;;;;0.30;0.20;;;7.20;99.90;;;;;;5106692;28;20207;-83
2023/11/28 00:47:18;;;;;;;0.30;0.20;;;7.10;99.90;;;;;;5106950;28;20573;-82
2023/11/28 00:49:43;;;;;;;0.30;0.20;;;7.20;99.90;;;;;;5106545;28;20199;-83
2023/11/28 00:52:10;;;;;;;0.30;0.20;;;7.20;99.90;;;;;;5107316;28;20496;-76
2023/11/28 00:54:37;;;;;;;0.30;0.20;;;7.20;99.90;;;;;;5106531;28;20200;-76
2023/11/28 00:57:04;;;;;;;0.30;0.20;;;7.20;99.90;;;;;;5107526;28;20569;-76
2023/11/28 00:59:30;;;;;;;0.30;0.30;;;7.20;99.90;;;;;;5107846;28;20556;-82
2023/11/28 01:01:56;;;;;;;0.30;0.20;;;7.20;99.90;;;;;;5107781;28;20164;-82
2023/11/28 01:04:22;;;;;;;0.30;0.20;;;7.20;99.90;;;;;;5107432;28;20207;-83
2023/11/28 01:06:48;;;;;;;0.30;0.20;;;7.10;99.90;;;;;;5106047;28;20184;-82
2023/11/28 01:09:14;;;;;;;0.30;0.20;;;7.10;99.90;;;;;;5107331;28;20200;-76
2023/11/28 01:11:41;;;;;;;0.30;0.20;;;7.10;99.90;;;;;;5107740;28;20564;-76
2023/11/28 01:14:07;;;;;;;0.30;0.20;;;7.10;99.90;;;;;;5107084;28;20195;-83
2023/11/28 01:16:34;;;;;;;0.30;0.20;;;7.10;99.90;;;;;;5107582;28;20667;-76
2023/11/28 01:19:00;;;;;;;0.30;0.20;;;7.20;99.90;;;;;;5105528;28;20650;-82
2023/11/28 01:21:25;;;;;;;0.30;0.20;;;7.20;99.90;;;;;;5105921;28;20171;-82
2023/11/28 01:23:51;;;;;;;0.30;0.20;;;7.10;99.90;;;;;;5107294;28;20770;-82
2023/11/28 01:26:17;;;;;;;0.30;0.20;;;7.10;99.90;;;;;;5107134;28;20459;-81
2023/11/28 01:28:43;;;;;;;0.30;0.20;;;7.10;99.90;;;;;;5106944;28;20192;-76
2023/11/28 01:31:11;;;;;;;0.30;0.20;;;7.10;99.90;;;;;;5105570;28;20168;-81
2023/11/28 01:33:37;;;;;;;0.30;0.20;;;7.10;99.90;;;;;;5105391;28;20809;-76
2023/11/28 01:36:05;;;;;;;0.30;0.20;;;7.10;99.90;;;;;;5105858;28;20176;-82
2023/11/28 01:38:30;;;;;;;0.30;0.20;;;7.10;99.90;;;;;;5107125;28;20466;-76
2023/11/28 01:40:56;;;;;;;0.30;0.20;;;7.10;99.90;;;;;;5107439;28;20678;-81
2023/11/28 01:43:26;;;;;;;0.30;0.20;;;7.10;99.90;;;;;;5105479;28;20192;-84
2023/11/28 01:45:52;;;;;;;0.30;0.20;;;7.10;99.90;;;;;;5106996;28;20297;-76
2023/11/28 01:48:19;;;;;;;0.30;0.30;;;7.10;99.90;;;;;;5104964;28;20282;-82
2023/11/28 01:50:48;;;;;;;0.30;0.30;;;7.10;99.90;;;;;;5105602;28;20556;-76
2023/11/28 01:53:16;;;;;;;0.30;0.20;;;7.10;99.90;;;;;;5106046;27;20195;-76
2023/11/28 01:55:43;;;;;;;0.30;0.20;;;7.10;99.90;;;;;;5107073;28;20178;-82
2023/11/28 01:58:09;;;;;;;0.30;0.20;;;7.10;99.90;;;;;;5105453;28;20731;-76
2023/11/28 02:00:36;;;;;;;0.30;0.20;;;7.10;99.90;;;;;;5106688;28;20180;-81
2023/11/28 02:03:03;;;;;;;0.30;0.20;;;7.10;99.90;;;;;;5104969;28;20199;-82
2023/11/28 02:05:29;;;;;;;0.30;0.30;;;7.10;99.90;;;;;;5105327;28;20436;-77
2023/11/28 02:07:55;;;;;;;0.30;0.20;;;7.10;99.90;;;;;;5105980;28;20233;-81
2023/11/28 02:10:23;;;;;;;0.30;0.20;;;7.20;99.90;;;;;;5105035;28;20544;-76
2023/11/28 02:12:49;;;;;;;0.30;0.20;;;7.10;99.90;;;;;;5104520;28;20191;-76
2023/11/28 02:15:15;;;;;;;0.30;0.20;;;7.20;99.90;;;;;;5106638;28;20632;-82
2023/11/28 02:17:41;;;;;;;0.30;0.20;;;7.30;99.90;;;;;;5105645;28;21043;-82
2023/11/28 02:20:08;;;;;;;0.30;0.20;;;7.30;99.90;;;;;;5106569;28;20914;-76
2023/11/28 02:22:34;;;;;;;0.30;0.20;;;7.30;99.90;;;;;;5105995;28;20511;-82
2023/11/28 02:25:01;;;;;;;0.30;0.20;;;7.30;99.90;;;;;;5106738;28;20560;-76
2023/11/28 02:27:27;;;;;;;0.30;0.20;;;7.30;99.90;;;;;;5106069;28;20176;-81
2023/11/28 02:29:53;;;;;;;0.30;0.20;;;7.20;99.90;;;;;;5106097;28;20404;-81
2023/11/28 02:32:19;;;;;;;0.30;0.20;;;7.10;99.90;;;;;;5105627;28;20167;-82
2023/11/28 02:34:45;;;;;;;0.30;0.20;;;7.10;99.90;;;;;;5106110;28;20225;-83
2023/11/28 02:37:10;;;;;;;0.30;0.20;;;7.00;99.90;;;;;;5104368;28;20558;-82
2023/11/28 02:39:37;;;;;;;0.30;0.20;;;7.00;99.90;;;;;;5106373;28;20455;-81
2023/11/28 02:42:03;;;;;;;0.30;0.30;;;6.90;99.90;;;;;;5105795;28;20221;-76
2023/11/28 02:44:29;;;;;;;0.30;0.20;;;6.90;99.90;;;;;;5104613;28;20657;-76
2023/11/28 02:46:54;;;;;;;0.30;0.30;;;6.90;99.90;;;;;;5104867;28;20391;-76
2023/11/28 02:49:20;;;;;;;0.30;0.20;;;6.90;99.90;;;;;;5105568;28;20200;-82
2023/11/28 02:51:46;;;;;;;0.30;0.30;;;6.80;99.90;;;;;;5106368;28;20180;-76
2023/11/28 02:54:11;;;;;;;0.30;0.20;;;6.80;99.90;;;;;;5105439;28;20251;-82
2023/11/28 02:56:37;;;;;;;0.30;0.30;;;6.90;99.90;;;;;;5105780;28;20347;-76
2023/11/28 02:59:02;;;;;;;0.30;0.20;;;6.80;99.90;;;;;;5105524;28;20433;-82
2023/11/28 03:01:29;;;;;;;0.30;0.30;;;6.80;99.90;;;;;;5105822;28;20176;-76
2023/11/28 03:03:55;;;;;;;0.30;0.20;;;6.90;99.90;;;;;;5104266;28;20195;-82
2023/11/28 03:06:21;;;;;;;0.30;0.30;;;6.80;99.90;;;;;;5105644;28;20172;-76
2023/11/28 03:08:47;;;;;;;0.30;0.20;;;6.70;99.90;;;;;;5103891;28;20592;-76
2023/11/28 03:11:13;;;;;;;0.30;0.20;;;6.70;99.90;;;;;;5108734;28;20180;-81
2023/11/28 03:13:38;;;;;;;0.30;0.20;;;6.70;99.90;;;;;;5109586;28;20206;-82
2023/11/28 03:16:04;;;;;;;0.30;0.30;;;6.70;99.90;;;;;;5108565;28;20183;-81
2023/11/28 03:18:31;;;;;;;0.30;0.20;;;6.70;99.90;;;;;;5107689;28;20235;-75
2023/11/28 03:20:57;;;;;;;0.30;0.20;;;6.70;99.90;;;;;;5109529;28;20476;-77
2023/11/28 03:23:22;;;;;;;0.30;0.30;;;6.70;99.90;;;;;;5109309;28;20371;-75
2023/11/28 03:25:48;;;;;;;0.30;0.20;;;6.70;99.90;;;;;;5110052;28;20542;-76
2023/11/28 03:28:14;;;;;;;0.30;0.20;;;6.70;99.90;;;;;;5107856;28;20286;-76
2023/11/28 03:30:39;;;;;;;0.30;0.20;;;6.70;99.90;;;;;;5109812;28;20180;-83
2023/11/28 03:33:05;;;;;;;0.30;0.20;;;6.70;99.90;;;;;;5108502;28;20184;-82
2023/11/28 03:35:31;;;;;;;0.30;0.20;;;6.80;99.90;;;;;;5109631;28;20179;-76
2023/11/28 03:37:57;;;;;;;0.30;0.30;;;6.70;99.90;;;;;;5107407;28;20311;-76
2023/11/28 03:40:23;;;;;;;0.30;0.20;;;6.80;99.90;;;;;;5107934;28;20180;-82
2023/11/28 03:42:48;;;;;;;0.30;0.20;;;6.80;99.90;;;;;;5107386;28;20168;-76
2023/11/28 03:45:14;;;;;;;0.30;0.30;;;6.80;99.90;;;;;;5109461;28;20710;-82
2023/11/28 03:47:39;;;;;;;0.30;0.20;;;6.80;99.90;;;;;;5108013;28;20293;-76
2023/11/28 03:50:06;;;;;;;0.30;0.20;;;6.90;99.90;;;;;;5107386;28;20190;-76
2023/11/28 03:52:32;;;;;;;0.30;0.20;;;6.90;99.90;;;;;;5108670;28;20172;-82
2023/11/28 03:54:58;;;;;;;0.30;0.20;;;6.90;99.90;;;;;;5107561;28;20709;-83
2023/11/28 03:57:23;;;;;;;0.30;0.20;;;7.00;99.90;;;;;;5108430;28;21005;-76
2023/11/28 03:59:49;;;;;;;0.30;0.30;;;6.90;99.90;;;;;;5109131;28;20571;-76
2023/11/28 04:02:15;;;;;;;0.30;0.20;;;7.00;99.90;;;;;;5108480;28;20404;-76
2023/11/28 04:04:41;;;;;;;0.30;0.20;;;7.00;99.90;;;;;;5107434;28;20435;-83
2023/11/28 04:07:07;;;;;;;0.30;0.30;;;7.10;99.90;;;;;;5108457;28;20172;-81
2023/11/28 04:09:32;;;;;;;0.30;0.20;;;7.10;99.90;;;;;;5108637;28;20204;-81
2023/11/28 04:11:58;;;;;;;0.30;0.20;;;7.10;99.90;;;;;;5109007;28;20179;-76
2023/11/28 04:14:24;;;;;;;42.00;10.00;;;7.10;99.90;;;;;;5108396;28;20200;-76
2023/11/28 04:16:50;;;;;;;0.30;0.20;;;7.20;99.90;;;;;;5107144;28;20205;-77
2023/11/28 04:19:15;;;;;;;0.30;0.30;;;7.20;99.90;;;;;;5108166;28;20428;-76
2023/11/28 04:21:41;;;;;;;0.30;0.20;;;7.20;99.90;;;;;;5107297;28;20571;-79
2023/11/28 04:24:07;;;;;;;0.30;0.20;;;7.10;99.90;;;;;;5108441;27;20212;-83
2023/11/28 04:26:33;;;;;;;0.30;0.20;;;7.10;99.90;;;;;;5107028;28;20172;-77
2023/11/28 04:28:59;;;;;;;0.30;0.20;;;7.10;99.90;;;;;;5107863;28;20203;-77
2023/11/28 04:31:25;;;;;;;0.40;0.40;;;7.10;99.90;;;;;;5108115;28;20168;-79
2023/11/28 04:33:50;;;;;;;0.30;0.20;;;7.10;99.90;;;;;;5107751;28;20652;-76
2023/11/28 04:36:16;;;;;;;0.30;0.20;;;7.10;99.90;;;;;;5108671;28;20305;-76
2023/11/28 04:38:43;;;;;;;0.30;0.20;;;7.10;99.90;;;;;;5107636;28;20273;-76
2023/11/28 04:41:12;;;;;;;0.30;0.20;;;7.10;99.90;;;;;;5106766;28;20564;-76
2023/11/28 04:43:37;;;;;;;0.30;0.20;;;7.10;99.90;;;;;;5107552;27;20260;-82
2023/11/28 04:46:03;;;;;;;0.30;0.20;;;7.10;99.90;;;;;;5106690;28;20631;-78
2023/11/28 04:48:29;;;;;;;0.30;0.20;;;7.10;99.90;;;;;;5105159;28;20403;-83
2023/11/28 04:50:55;;;;;;;0.30;0.20;;;7.00;99.90;;;;;;5108437;28;20179;-77
2023/11/28 04:53:20;;;;;;;0.30;0.20;;;7.10;99.90;;;;;;5107332;28;20741;-78
2023/11/28 04:55:46;;;;;;;0.30;0.20;;;7.10;99.90;;;;;;5107751;28;20187;-77
2023/11/28 04:58:12;;;;;;;0.30;0.20;;;7.10;99.90;;;;;;5105961;28;20764;-78
2023/11/28 05:00:37;;;;;;;0.30;0.20;;;7.10;99.90;;;;;;5106413;28;20175;-77
2023/11/28 05:03:03;;;;;;;0.30;0.20;;;7.10;99.90;;;;;;5104955;28;20183;-83
2023/11/28 05:05:29;;;;;;;0.30;0.20;;;7.10;99.90;;;;;;5105951;28;20172;-78
2023/11/28 05:07:55;;;;;;;0.30;0.20;;;7.10;99.90;;;;;;5106827;28;20389;-82
2023/11/28 05:10:20;;;;;;;0.30;0.20;;;7.10;99.90;;;;;;5104684;27;20196;-83
2023/11/28 05:12:46;;;;;;;0.30;0.20;;;7.10;99.90;;;;;;5104678;27;20406;-78
2023/11/28 05:15:12;;;;;;;0.30;0.20;;;7.10;99.90;;;;;;5103286;27;20192;-78
2023/11/28 05:17:37;;;;;;;0.30;0.20;;;7.10;99.90;;;;;;5102206;27;20216;-83
2023/11/28 05:20:04;;;;;;;0.30;0.20;;;7.20;99.90;;;;;;5103242;27;20481;-78
2023/11/28 05:22:30;;;;;;;0.30;0.20;;;7.20;99.90;;;;;;5105322;28;20266;-82
2023/11/28 05:24:56;;;;;;;0.30;0.20;;;7.20;99.90;;;;;;5106200;27;20656;-83
2023/11/28 05:27:22;;;;;;;1.73;1.63;;;7.30;99.90;;;;;;5107170;27;20191;-78
2023/11/28 05:29:47;;;;;;;0.30;0.20;;;7.30;99.90;;;;;;5108265;27;20278;-78
2023/11/28 05:32:13;;;;;;;0.30;0.20;;;7.30;99.90;;;;;;5103671;28;20205;-78
2023/11/28 05:34:39;;;;;;;0.30;0.20;;;7.30;99.90;;;;;;5106162;28;20734;-78
2023/11/28 05:37:05;;;;;;;0.30;0.20;;;7.30;99.90;;;;;;5106397;28;20256;-78
2023/11/28 05:39:31;;;;;;;0.30;0.20;;;7.30;99.90;;;;;;5104851;28;20207;-78
2023/11/28 05:41:56;;;;;;;0.30;0.30;;;7.20;99.90;;;;;;5105168;28;20543;-82
2023/11/28 05:44:22;;;;;;;0.30;0.20;;;7.20;99.90;;;;;;5105997;28;20238;-82
2023/11/28 05:46:48;;;;;;;0.30;0.30;;;7.20;99.90;;;;;;5100439;27;20244;-82
2023/11/28 05:49:14;;;;;;;0.30;0.20;;;7.20;99.90;;;;;;5101945;27;20204;-83
2023/11/28 05:51:39;;;;;;;0.30;0.20;;;7.10;99.90;;;;;;5103772;27;20710;-79
2023/11/28 05:54:05;;;;;;;0.30;0.20;;;7.10;99.90;;;;;;5104705;28;20219;-77
2023/11/28 05:56:31;;;;;;;0.30;0.20;;;7.10;99.90;;;;;;5098772;28;20652;-83
2023/11/28 05:58:57;;;;;;;0.30;0.23;;;7.10;99.90;;;;;;5105783;28;20471;-77
2023/11/28 06:01:27;;;;;;;0.30;0.20;;;7.10;99.90;;;;;;5103241;28;20275;-81
2023/11/28 06:03:53;;;;;;;0.30;0.30;;;7.20;99.90;;;;;;5095337;27;20211;-82
2023/11/28 06:06:19;;;;;;;0.30;0.20;;;7.20;99.90;;;;;;5098454;28;20278;-82
2023/11/28 06:08:45;;;;;;;0.30;0.20;;;7.30;99.90;;;;;;5101647;28;20283;-82
2023/11/28 06:11:11;;;;;;;0.30;0.20;;;7.30;99.90;;;;;;5113929;27;20428;-81
2023/11/28 06:13:36;;;;;;;0.30;0.20;;;7.30;99.90;;;;;;5102514;28;20295;-78
2023/11/28 06:16:06;;;;;;;0.30;0.20;;;7.30;99.90;;;;;;5104647;28;20184;-78
2023/11/28 06:18:31;;;;;;;0.30;0.25;;;7.30;99.90;;;;;;5103313;28;20232;-83
2023/11/28 06:20:57;;;;;;;0.30;0.20;;;7.30;99.90;;;;;;5098561;27;20695;-81
2023/11/28 06:23:23;;;;;;;0.30;0.20;;;7.30;99.90;;;;;;5099868;28;20256;-79
2023/11/28 06:25:49;;;;;;;0.30;0.20;;;7.30;99.90;;;;;;5097037;27;20191;-72
2023/11/28 06:28:16;;;;;;;0.30;0.20;;;7.30;99.90;;;;;;5098396;28;20192;-72
2023/11/28 06:30:42;;;;;;;0.30;0.20;;;7.30;99.90;;;;;;5101234;27;20184;-73
2023/11/28 06:33:08;;;;;;;0.30;0.30;;;7.30;99.90;;;;;;5100586;28;20203;-74
2023/11/28 06:35:34;;;;;;;0.30;0.20;;;7.30;99.90;;;;;;5101051;28;20733;-73
2023/11/28 06:38:01;;;;;;;0.30;0.20;;;7.30;99.90;;;;;;5103533;28;20479;-74
2023/11/28 06:40:26;;;;;;;0.30;0.20;;;7.20;99.90;;;;;;5103481;28;20187;-73
2023/11/28 06:42:52;;;;;;;0.30;0.20;;;7.20;99.90;;;;;;5101370;28;20622;-73
2023/11/28 06:45:20;;;;;;;0.30;0.20;;;7.20;99.90;;;;;;5105004;28;20555;-74
2023/11/28 06:47:45;;;;;;;0.30;0.20;;;7.10;99.90;;;;;;5098637;28;20175;-73
2023/11/28 06:50:11;;;;;;;5.20;5.00;;;7.10;99.90;;;;;;5100108;28;20199;-73
2023/11/28 06:52:37;;;;;;;0.30;0.20;;;7.00;99.90;;;;;;5098318;28;20188;-75
2023/11/28 06:55:08;;;;;;;0.30;0.20;;;7.00;99.90;;;;;;5099598;28;20184;-73
2023/11/28 06:57:35;;;;;;;0.30;0.20;;;7.00;99.90;;;;;;5102570;28;20202;-75
2023/11/28 07:00:01;;;;;;;0.30;0.20;;;7.00;99.90;;;;;;5092596;28;20797;-75
2023/11/28 07:02:26;;;;;;;0.30;0.20;;;7.00;99.90;;;;;;5102350;28;20240;-74
2023/11/28 07:04:52;;;;;;;0.30;0.20;;;7.00;99.90;;;;;;5099141;28;20215;-74
2023/11/28 07:07:18;;;;;;;0.30;0.20;;;6.90;99.90;;;;;;5097977;28;20171;-77
2023/11/28 07:09:47;;;;;;;0.30;0.20;;;6.90;99.90;;;;;;5093699;28;20408;-76
2023/11/28 07:12:13;;;;;;;0.30;0.20;;;6.90;99.90;;;;;;5083483;28;20181;-75
2023/11/28 07:14:39;;;;;;;0.30;0.20;;;6.80;99.90;;;;;;5085848;28;20204;-75
2023/11/28 07:17:04;;;;;;;0.30;0.30;;;6.80;99.90;;;;;;5083931;28;20460;-75
2023/11/28 07:19:30;;;;;;;0.30;0.30;;;6.80;99.90;;;;;;5087023;28;20667;-75
2023/11/28 07:21:55;;;;;;;0.30;0.20;;;6.80;99.90;;;;;;5086446;28;20168;-74
2023/11/28 07:24:21;;;;;;;0.30;0.20;;;6.70;99.90;;;;;;5099148;28;20200;-75
2023/11/28 07:26:47;;;;;;;0.30;0.20;;;6.70;99.90;;;;;;5105664;28;20717;-74
2023/11/28 07:29:13;;;;;;;0.30;0.20;;;6.70;99.90;;;;;;5101155;28;20447;-75
2023/11/28 07:31:39;;;;;;;0.30;0.20;;;6.80;99.90;;;;;;5105357;27;20188;-75
2023/11/28 07:34:05;;;;;;;0.30;0.30;;;6.70;99.90;;;;;;5105305;28;20208;-74
2023/11/28 07:36:30;;;;;;;0.30;0.20;;;6.70;99.90;;;;;;5106569;28;20395;-75
2023/11/28 07:38:56;;;;;;;0.30;0.20;;;6.70;99.90;;;;;;5106144;27;20605;-74
2023/11/28 07:41:22;;;;;;;0.30;0.20;;;6.70;99.90;;;;;;5103963;28;20180;-74
2023/11/28 07:43:48;;;;;;;0.30;0.20;;;6.80;99.90;;;;;;5114321;27;20440;-75
2023/11/28 07:46:15;;;;;;;0.30;0.20;;;6.80;99.90;;;;;;5101977;28;20183;-74
2023/11/28 07:48:42;;;;;;;0.30;0.20;;;6.80;99.90;;;;;;5104116;27;20195;-75
2023/11/28 07:51:09;;;;;;;0.30;0.20;;;6.80;99.90;;;;;;5108968;27;20191;-75
2023/11/28 07:53:35;;;;;;;0.30;0.20;;;6.90;99.90;;;;;;5117432;27;20198;-75
2023/11/28 07:56:01;;;;;;;0.30;0.20;;;6.80;99.90;;;;;;5104041;27;21071;-74
2023/11/28 07:58:27;;;;;;;0.30;0.20;;;6.80;99.90;;;;;;5099106;27;20216;-76
2023/11/28 08:00:53;;;;;;;0.30;0.20;;;6.80;99.90;;;;;;5090579;27;20187;-75
2023/11/28 08:03:18;;;;;;;0.30;0.20;;;6.80;99.90;;;;;;5120154;27;20405;-75
2023/11/28 08:05:44;;;;;;;0.30;0.20;;;6.80;99.90;;;;;;5117853;27;20191;-75
2023/11/28 08:08:11;;;;;;;0.30;0.20;;;6.70;99.90;;;;;;5101001;27;20454;-75
2023/11/28 08:10:36;;;;;;;0.30;0.20;;;6.80;99.90;;;;;;5102728;27;20581;-74
2023/11/28 08:13:02;;;;;;;0.30;0.20;;;6.70;99.90;;;;;;5109770;27;20192;-75
2023/11/28 08:15:28;;;;;;;0.30;0.20;;;6.70;99.90;;;;;;5085627;28;20204;-75
2023/11/28 08:17:53;;;;;;;0.30;0.20;;;6.70;99.90;;;;;;5104378;27;20234;-74
2023/11/28 08:20:19;;;;;;;0.30;0.20;;;6.60;99.90;;;;;;5106015;27;20187;-74
2023/11/28 08:22:44;;;;;;;0.30;0.20;;;6.60;99.90;;;;;;5102813;27;20410;-75
2023/11/28 08:25:10;;;;;;;0.30;0.30;;;6.60;99.90;;;;;;5102202;28;20279;-75
2023/11/28 08:27:37;;;;;;;0.30;0.20;;;6.60;99.90;;;;;;5114063;27;20167;-77
2023/11/28 08:30:04;;;;;;;0.30;0.20;;;6.60;99.90;;;;;;5097705;27;20526;-75
2023/11/28 08:32:30;;;;;;;0.30;0.20;;;6.60;99.90;;;;;;5120668;27;20332;-73
2023/11/28 08:34:56;;;;;;;0.30;0.20;;;6.60;99.90;;;;;;5117884;27;20484;-75
2023/11/28 08:37:21;;;;;;;0.30;0.20;;;6.60;99.90;;;;;;5107154;27;20244;-73
2023/11/28 08:39:48;;;;;;;0.30;0.20;;;6.70;99.90;;;;;;5102213;27;20288;-75
2023/11/28 08:42:13;;;;;;;0.30;0.22;;;6.60;99.90;;;;;;5095814;27;20282;-76
2023/11/28 08:44:40;;;;;;;0.30;0.20;;;6.60;99.90;;;;;;5099498;27;20597;-77
2023/11/28 08:47:06;;;;;;;0.30;0.20;;;6.60;99.90;;;;;;5097101;27;20266;-76
2023/11/28 08:49:31;;;;;;;0.30;0.20;;;6.60;99.90;;;;;;5099463;27;20207;-77
2023/11/28 08:51:57;;;;;;;0.30;0.20;;;6.70;99.90;;;;;;5091957;27;20765;-77
2023/11/28 08:54:23;;;;;;;1.53;1.37;;;6.70;99.90;;;;;;5094638;28;20207;-76
2023/11/28 08:56:48;;;;;;;0.30;0.20;;;6.70;99.90;;;;;;5094189;27;20543;-77
2023/11/28 08:59:14;;;;;;;0.30;0.20;;;6.70;99.90;;;;;;5100187;27;20253;-75
2023/11/28 09:01:40;;;;;;;0.30;0.20;;;6.70;99.90;;;;;;5094637;28;20404;-74
2023/11/28 09:04:06;;;;;;;0.30;0.20;;;6.70;99.90;;;;;;5097361;27;20215;-75
2023/11/28 09:06:32;;;;;;;0.30;0.20;;;6.80;99.90;;;;;;5097912;28;20180;-76
2023/11/28 09:08:58;;;;;;;0.30;0.20;;;6.80;99.90;;;;;;5111169;27;20973;-75
2023/11/28 09:11:23;;;;;;;0.30;0.20;;;6.80;99.90;;;;;;5109275;27;20179;-73
2023/11/28 09:13:49;;;;;;;0.30;0.20;;;6.80;99.90;;;;;;5091538;28;20200;-74
2023/11/28 09:16:15;;;;;;;0.30;0.20;;;6.90;99.90;;;;;;5097016;28;20187;-74
2023/11/28 09:18:41;;;;;;;0.30;0.20;;;6.80;99.90;;;;;;5106394;27;20239;-74
2023/11/28 09:21:08;;;;;;;0.30;0.20;;;6.90;99.90;;;;;;5088580;27;20195;-73
2023/11/28 09:23:34;;;;;;;0.30;0.20;;;6.90;99.90;;;;;;5101728;27;20192;-74
2023/11/28 09:26:00;;;;;;;0.30;0.20;;;7.00;99.90;;;;;;5097887;27;20194;-75
2023/11/28 09:28:26;;;;;;;0.30;0.20;;;7.00;99.90;;;;;;5105074;27;20695;-74
2023/11/28 09:30:51;;;;;;;0.30;0.20;;;7.00;99.90;;;;;;5096418;27;20539;-74
2023/11/28 09:33:17;;;;;;;0.30;0.20;;;7.00;99.90;;;;;;5100937;27;20357;-73
2023/11/28 09:35:46;;;;;;;0.30;0.20;;;7.00;99.90;;;;;;5095974;27;20188;-73
2023/11/28 09:38:12;;;;;;;0.30;0.20;;;7.00;99.90;;;;;;5101738;27;20231;-73
2023/11/28 09:40:38;;;;;;;0.30;0.20;;;7.00;99.90;;;;;;5099048;27;20176;-74
2023/11/28 09:43:03;;;;;;;0.30;0.20;;;7.00;99.90;;;;;;5106563;27;20285;-72
2023/11/28 09:45:29;;;;;;;0.30;0.20;;;7.00;99.90;;;;;;5097660;27;20267;-72
2023/11/28 09:48:03;;;;;;;0.30;0.20;;;7.00;99.90;;;;;;5105893;27;20260;-73
2023/11/28 09:50:29;;;;;;;0.30;0.20;;;6.90;99.90;;;;;;5096609;27;20201;-73
2023/11/28 09:52:57;;;;;;;0.30;0.20;;;6.90;99.90;;;;;;5106832;27;20191;-75
2023/11/28 09:55:24;;;;;;;0.30;0.30;;;6.90;99.90;;;;;;5099957;28;20730;-75
2023/11/28 09:57:50;;;;;;;0.30;0.20;;;7.00;99.90;;;;;;5112611;27;20605;-73
2023/11/28 10:00:18;;;;;;;0.63;0.63;;;7.00;99.90;;;;;;5101276;28;20797;-73
2023/11/28 10:02:44;;;;;;;0.30;0.30;;;7.10;99.90;;;;;;5097003;28;20184;-75
2023/11/28 10:05:10;;;;;;;0.30;0.20;;;7.10;99.90;;;;;;5107966;27;20183;-73
2023/11/28 10:07:42;;;;;;;0.30;0.20;;;7.10;99.90;;;;;;5109916;27;20191;-74
2023/11/28 10:10:09;;;;;;;0.30;0.20;;;7.10;99.90;;;;;;5115367;27;20676;-73
2023/11/28 10:12:38;;;;;;;0.30;0.20;;;7.20;99.90;;;;;;5097385;27;20184;-75
2023/11/28 10:15:08;;;;;;;0.30;0.20;;;7.20;99.90;;;;;;5107653;27;20552;-74
2023/11/28 10:17:36;;;;;;;0.30;0.20;;;7.30;99.90;;;;;;5099193;28;20323;-74
2023/11/28 10:20:05;;;;;;;0.30;0.20;;;7.30;99.90;;;;;;5095853;27;20673;-74
2023/11/28 10:22:31;;;;;;;0.30;0.20;;;7.30;99.90;;;;;;5096437;28;20189;-75
2023/11/28 10:24:57;;;;;;;0.30;0.20;;;7.40;99.90;;;;;;5101375;27;20207;-73
2023/11/28 10:27:22;;;;;;;0.30;0.20;;;7.40;99.90;;;;;;5098335;27;20799;-76
2023/11/28 10:29:49;;;;;;;0.30;0.20;;;7.40;99.90;;;;;;5106419;27;20260;-74
2023/11/28 10:32:15;;;;;;;0.35;0.32;;;7.50;99.90;;;;;;5100934;27;20570;-76
2023/11/28 10:34:55;;;;;;;0.30;0.20;;;7.50;99.90;;;;;;5100565;28;20204;-75
2023/11/28 10:37:24;;;;;;;0.30;0.20;;;7.60;99.90;;;;;;5099513;28;20200;-75
2023/11/28 10:39:53;;;;;;;0.30;0.20;;;7.60;99.90;;;;;;5100155;27;20210;-73
2023/11/28 10:42:19;;;;;;;0.30;0.20;;;7.60;99.90;;;;;;5109566;27;20309;-77
2023/11/28 10:44:45;;;;;;;0.30;0.20;;;7.60;99.90;;;;;;5108550;27;20576;-75
2023/11/28 10:47:13;;;;;;;1.00;1.00;;;7.60;99.90;;;;;;5098109;28;20369;-75
2023/11/28 10:49:39;;;;;;;0.30;0.20;;;7.70;99.90;;;;;;5110715;27;20221;-75
2023/11/28 10:52:05;;;;;;;0.30;0.20;;;7.70;99.90;;;;;;5103472;28;20179;-76
2023/11/28 10:54:36;;;;;;;0.30;0.20;;;7.70;99.90;;;;;;5112906;27;21019;-75
2023/11/28 10:57:06;;;;;;;2.15;1.13;;;7.70;99.90;;;;;;5119831;28;20191;-73
2023/11/28 10:59:36;;;;;;;0.30;0.20;;;7.70;99.90;;;;;;5108196;27;20195;-74
2023/11/28 11:02:08;;;;;;;0.30;0.30;;;7.70;99.90;;;;;;5094710;28;20191;-76
2023/11/28 11:04:35;;;;;;;0.30;0.20;;;7.70;99.90;;;;;;5091533;28;20610;-74
2023/11/28 11:07:01;;;;;;;0.30;0.20;;;7.80;99.90;;;;;;5099017;28;20180;-75
2023/11/28 11:09:27;;;;;;;0.30;0.20;;;7.80;99.90;;;;;;5097510;28;20837;-75
2023/11/28 11:11:57;;;;;;;0.30;0.20;;;7.80;99.90;;;;;;5104497;28;20446;-74
2023/11/28 11:14:59;;;;;;;0.30;0.20;;;7.80;99.90;;;;;;5101488;28;20244;-75
2023/11/28 11:17:53;;;;;;;0.30;0.20;;;7.80;99.90;;;;;;5092911;28;20320;-74
2023/11/28 11:20:22;;;;;;;0.30;0.20;;;7.80;99.90;;;;;;5099023;28;20274;-74
2023/11/28 11:22:52;;;;;;;0.30;0.20;;;7.80;99.90;;;;;;5104109;27;20207;-75
2023/11/28 11:25:39;;;;;;;0.30;0.20;;;7.80;99.90;;;;;;5101121;28;20183;-74
2023/11/28 11:28:04;;;;;;;0.30;0.20;;;7.80;99.90;;;;;;5095491;28;20196;-75
2023/11/28 11:30:36;;;;;;;0.30;0.20;;;7.90;99.90;;;;;;5101365;28;20198;-74
2023/11/28 11:33:01;;;;;;;0.30;0.20;;;7.90;99.90;;;;;;5101101;27;20203;-74
2023/11/28 11:35:30;;;;;;;0.30;0.20;;;7.80;99.90;;;;;;5100921;27;20328;-75
2023/11/28 11:37:55;;;;;;;0.30;0.20;;;7.90;99.90;;;;;;5104251;27;20220;-74
2023/11/28 11:40:22;;;;;;;0.30;0.20;;;7.90;99.90;;;;;;5108352;27;20225;-74
2023/11/28 11:42:48;;;;;;;0.30;0.20;;;7.90;99.90;;;;;;5105316;28;20195;-76
2023/11/28 11:45:18;;;;;;;0.37;0.30;;;7.90;99.90;;;;;;5094018;27;20176;-76
2023/11/28 11:47:44;;;;;;;0.30;0.20;;;7.90;99.90;;;;;;5096436;27;20179;-74
2023/11/28 11:50:10;;;;;;;0.30;0.20;;;7.90;99.90;;;;;;5095753;27;20806;-74
2023/11/28 11:52:36;;;;;;;0.30;0.20;;;7.90;99.90;;;;;;5098076;27;20180;-75
2023/11/28 11:55:09;;;;;;;0.30;0.20;;;7.90;99.90;;;;;;5097643;27;20194;-75
2023/11/28 11:57:39;;;;;;;0.30;0.20;;;7.90;99.90;;;;;;5094945;27;20438;-75
2023/11/28 12:00:10;;;;;;;0.30;0.20;;;7.90;99.90;;;;;;5103367;27;20753;-75
2023/11/28 12:02:40;;;;;;;0.30;0.20;;;8.00;99.90;;;;;;5091745;27;20269;-75
2023/11/28 12:05:07;;;;;;;0.30;0.20;;;8.00;99.90;;;;;;5092316;27;20559;-75
2023/11/28 12:07:33;;;;;;;0.30;0.20;;;8.00;99.90;;;;;;5089391;28;20181;-75
2023/11/28 12:10:07;;;;;;;0.30;0.20;;;8.00;99.90;;;;;;5097845;27;20199;-74
2023/11/28 12:12:33;;;;;;;0.30;0.20;;;8.00;99.90;;;;;;5093926;27;20172;-75
2023/11/28 12:14:58;;;;;;;0.30;0.20;;;8.10;99.90;;;;;;5099378;27;20211;-75
2023/11/28 12:17:24;;;;;;;0.30;0.20;;;8.10;99.90;;;;;;5102104;27;20796;-75
2023/11/28 12:19:50;;;;;;;0.30;0.30;;;8.10;99.90;;;;;;5103258;27;20262;-74
2023/11/28 12:22:16;;;;;;;0.30;0.20;;;8.10;99.90;;;;;;5101972;27;20176;-74
2023/11/28 12:24:43;;;;;;;0.30;0.20;;;8.10;99.90;;;;;;5104227;27;20808;-75
2023/11/28 12:27:09;;;;;;;0.30;0.30;;;8.10;99.90;;;;;;5096732;27;20710;-75
2023/11/28 12:29:36;;;;;;;0.30;0.20;;;8.20;99.90;;;;;;5096244;27;20199;-73
2023/11/28 12:32:01;;;;;;;0.40;0.40;;;8.20;99.90;;;;;;5101012;27;20207;-74
2023/11/28 12:34:29;;;;;;;0.30;0.27;;;8.20;99.90;;;;;;5098489;27;20242;-74
2023/11/28 12:36:59;;;;;;;0.30;0.20;;;8.20;99.90;;;;;;5099716;27;20176;-74
2023/11/28 12:39:27;;;;;;;0.30;0.20;;;8.20;99.90;;;;;;5112368;27;20191;-74
2023/11/28 12:41:53;;;;;;;0.30;0.20;;;8.20;99.90;;;;;;5103827;27;20176;-73
2023/11/28 12:44:20;;;;;;;0.30;0.20;;;8.20;99.90;;;;;;5098057;27;20781;-73
2023/11/28 12:46:49;;;;;;;0.30;0.20;;;8.20;99.90;;;;;;5112368;27;20254;-74
2023/11/28 12:49:15;;;;;;;0.30;0.20;;;8.20;99.90;;;;;;5105412;27;20220;-75
2023/11/28 12:51:42;;;;;;;0.30;0.20;;;8.20;99.90;;;;;;5108902;27;20181;-73
2023/11/28 12:54:12;;;;;;;0.30;0.20;;;8.30;99.90;;;;;;5101657;27;20671;-74